sensor_id;sensor_type;location;lat;lon;timestamp;P1;durP1;ratioP1;P2;durP2;ratioP2
43540;SDS011;29549;40.386;-3.710;2023-10-13T00:00:01;12.55;;;6.55;;
43540;SDS011;29549;40.386;-3.710;2023-10-13T00:00:33;11.88;;;6.40;;
43540;SDS011;29549;40.386;-3.710;2023-10-13T00:00:46;9.95;;;6.30;;
43540;SDS011;29549;40.386;-3.710;2023-10-13T00:00:58;10.63;;;6.53;;
43540;SDS011;29549;40.386;-3.710;2023-10-13T00:01:09;10.60;;;6.40;;
43540;SDS011;29549;40.386;-3.710;2023-10-13T00:01:22;10.02;;;6.38;;
43540;SDS011;29549;40.386;-3.710;2023-10-13T00:01:33;9.65;;;6.25;;
43540;SDS011;29549;40.386;-3.710;2023-10-13T00:01:44;10.07;;;6.30;;
43540;SDS011;29549;40.386;-3.710;2023-10-13T00:01:57;11.38;;;6.70;;
43540;SDS011;29549;40.386;-3.710;2023-10-13T00:02:11;11.23;;;6.93;;
43540;SDS011;29549;40.386;-3.710;2023-10-13T00:02:24;12.55;;;6.93;;
43540;SDS011;29549;40.386;-3.710;2023-10-13T00:02:34;12.10;;;6.75;;
43540;SDS011;29549;40.386;-3.710;2023-10-13T00:02:45;12.88;;;7.45;;
43540;SDS011;29549;40.386;-3.710;2023-10-13T00:02:57;11.60;;;7.30;;
43540;SDS011;29549;40.386;-3.710;2023-10-13T00:03:11;12.80;;;6.93;;
43540;SDS011;29549;40.386;-3.710;2023-10-13T00:03:28;12.73;;;6.47;;
43540;SDS011;29549;40.386;-3.710;2023-10-13T00:03:41;12.10;;;6.35;;
43540;SDS011;29549;40.386;-3.710;2023-10-13T00:03:52;11.55;;;6.20;;
43540;SDS011;29549;40.386;-3.710;2023-10-13T00:04:04;12.52;;;6.78;;
43540;SDS011;29549;40.386;-3.710;2023-10-13T00:04:15;13.27;;;6.80;;
43540;SDS011;29549;40.386;-3.710;2023-10-13T00:04:29;13.73;;;7.30;;
43540;SDS011;29549;40.386;-3.710;2023-10-13T00:04:41;12.90;;;7.45;;
43540;SDS011;29549;40.386;-3.710;2023-10-13T00:04:52;13.52;;;7.55;;
43540;SDS011;29549;40.386;-3.710;2023-10-13T00:05:03;13.43;;;7.15;;
43540;SDS011;29549;40.386;-3.710;2023-10-13T00:05:14;13.65;;;7.13;;
43540;SDS011;29549;40.386;-3.710;2023-10-13T00:05:27;12.98;;;7.07;;
43540;SDS011;29549;40.386;-3.710;2023-10-13T00:05:38;12.35;;;6.70;;
43540;SDS011;29549;40.386;-3.710;2023-10-13T00:05:51;11.73;;;6.28;;
43540;SDS011;29549;40.386;-3.710;2023-10-13T00:06:09;11.05;;;6.35;;
43540;SDS011;29549;40.386;-3.710;2023-10-13T00:06:20;11.18;;;6.93;;
43540;SDS011;29549;40.386;-3.710;2023-10-13T00:06:31;10.43;;;7.23;;
43540;SDS011;29549;40.386;-3.710;2023-10-13T00:06:42;9.95;;;7.18;;
43540;SDS011;29549;40.386;-3.710;2023-10-13T00:06:55;9.52;;;6.63;;
43540;SDS011;29549;40.386;-3.710;2023-10-13T00:07:12;10.48;;;6.30;;
43540;SDS011;29549;40.386;-3.710;2023-10-13T00:07:23;10.87;;;6.37;;
43540;SDS011;29549;40.386;-3.710;2023-10-13T00:07:33;10.27;;;6.15;;
43540;SDS011;29549;40.386;-3.710;2023-10-13T00:07:44;10.85;;;6.00;;
43540;SDS011;29549;40.386;-3.710;2023-10-13T00:07:55;10.98;;;6.00;;
43540;SDS011;29549;40.386;-3.710;2023-10-13T00:08:11;11.07;;;6.13;;
43540;SDS011;29549;40.386;-3.710;2023-10-13T00:08:23;12.13;;;6.00;;
43540;SDS011;29549;40.386;-3.710;2023-10-13T00:08:34;14.02;;;6.13;;
43540;SDS011;29549;40.386;-3.710;2023-10-13T00:08:46;14.55;;;6.20;;
43540;SDS011;29549;40.386;-3.710;2023-10-13T00:08:57;17.45;;;6.43;;
43540;SDS011;29549;40.386;-3.710;2023-10-13T00:09:08;16.88;;;6.50;;
43540;SDS011;29549;40.386;-3.710;2023-10-13T00:09:24;11.90;;;6.70;;
43540;SDS011;29549;40.386;-3.710;2023-10-13T00:09:42;12.05;;;6.93;;
43540;SDS011;29549;40.386;-3.710;2023-10-13T00:09:52;12.20;;;6.77;;
43540;SDS011;29549;40.386;-3.710;2023-10-13T00:10:03;11.38;;;6.60;;
43540;SDS011;29549;40.386;-3.710;2023-10-13T00:10:24;13.65;;;6.65;;
43540;SDS011;29549;40.386;-3.710;2023-10-13T00:10:35;15.13;;;7.25;;
43540;SDS011;29549;40.386;-3.710;2023-10-13T00:10:46;15.95;;;7.50;;
43540;SDS011;29549;40.386;-3.710;2023-10-13T00:10:57;13.73;;;7.18;;
43540;SDS011;29549;40.386;-3.710;2023-10-13T00:11:12;14.25;;;6.70;;
43540;SDS011;29549;40.386;-3.710;2023-10-13T00:11:23;13.23;;;6.65;;
43540;SDS011;29549;40.386;-3.710;2023-10-13T00:11:36;11.52;;;6.50;;
43540;SDS011;29549;40.386;-3.710;2023-10-13T00:11:53;10.98;;;6.82;;
43540;SDS011;29549;40.386;-3.710;2023-10-13T00:12:05;11.23;;;6.65;;
43540;SDS011;29549;40.386;-3.710;2023-10-13T00:12:23;11.43;;;6.40;;
43540;SDS011;29549;40.386;-3.710;2023-10-13T00:12:34;10.32;;;6.70;;
43540;SDS011;29549;40.386;-3.710;2023-10-13T00:12:47;12.30;;;7.10;;
43540;SDS011;29549;40.386;-3.710;2023-10-13T00:13:02;13.82;;;6.95;;
43540;SDS011;29549;40.386;-3.710;2023-10-13T00:13:31;12.40;;;6.65;;
43540;SDS011;29549;40.386;-3.710;2023-10-13T00:14:12;10.80;;;6.35;;
43540;SDS011;29549;40.386;-3.710;2023-10-13T00:14:26;11.52;;;6.30;;
43540;SDS011;29549;40.386;-3.710;2023-10-13T00:14:43;12.23;;;6.63;;
43540;SDS011;29549;40.386;-3.710;2023-10-13T00:14:55;11.15;;;6.70;;
43540;SDS011;29549;40.386;-3.710;2023-10-13T00:15:06;10.52;;;6.55;;
43540;SDS011;29549;40.386;-3.710;2023-10-13T00:15:23;10.55;;;6.25;;
43540;SDS011;29549;40.386;-3.710;2023-10-13T00:16:06;11.25;;;6.80;;
43540;SDS011;29549;40.386;-3.710;2023-10-13T00:16:20;11.82;;;6.72;;
43540;SDS011;29549;40.386;-3.710;2023-10-13T00:16:32;11.85;;;6.18;;
43540;SDS011;29549;40.386;-3.710;2023-10-13T00:16:44;12.18;;;6.00;;
43540;SDS011;29549;40.386;-3.710;2023-10-13T00:17:13;12.15;;;6.35;;
43540;SDS011;29549;40.386;-3.710;2023-10-13T00:17:30;10.70;;;6.72;;
43540;SDS011;29549;40.386;-3.710;2023-10-13T00:17:42;11.70;;;6.97;;
43540;SDS011;29549;40.386;-3.710;2023-10-13T00:17:53;13.43;;;6.97;;
43540;SDS011;29549;40.386;-3.710;2023-10-13T00:18:05;14.98;;;6.95;;
43540;SDS011;29549;40.386;-3.710;2023-10-13T00:18:32;11.98;;;6.80;;
43540;SDS011;29549;40.386;-3.710;2023-10-13T00:18:51;12.63;;;8.45;;
43540;SDS011;29549;40.386;-3.710;2023-10-13T00:19:07;16.35;;;9.55;;
43540;SDS011;29549;40.386;-3.710;2023-10-13T00:19:20;16.63;;;9.07;;
43540;SDS011;29549;40.386;-3.710;2023-10-13T00:19:35;12.80;;;7.85;;
43540;SDS011;29549;40.386;-3.710;2023-10-13T00:19:55;11.18;;;7.95;;
43540;SDS011;29549;40.386;-3.710;2023-10-13T00:20:10;11.35;;;7.82;;
43540;SDS011;29549;40.386;-3.710;2023-10-13T00:20:27;11.13;;;7.13;;
43540;SDS011;29549;40.386;-3.710;2023-10-13T00:20:44;11.55;;;6.90;;
43540;SDS011;29549;40.386;-3.710;2023-10-13T00:21:01;14.23;;;7.30;;
43540;SDS011;29549;40.386;-3.710;2023-10-13T00:21:22;11.43;;;7.55;;
43540;SDS011;29549;40.386;-3.710;2023-10-13T00:21:42;13.50;;;6.90;;
43540;SDS011;29549;40.386;-3.710;2023-10-13T00:21:53;14.10;;;6.65;;
43540;SDS011;29549;40.386;-3.710;2023-10-13T00:22:06;13.63;;;6.63;;
43540;SDS011;29549;40.386;-3.710;2023-10-13T00:22:21;11.80;;;6.25;;
43540;SDS011;29549;40.386;-3.710;2023-10-13T00:22:32;13.18;;;5.93;;
43540;SDS011;29549;40.386;-3.710;2023-10-13T00:22:44;13.20;;;5.93;;
43540;SDS011;29549;40.386;-3.710;2023-10-13T00:22:54;13.27;;;6.03;;
43540;SDS011;29549;40.386;-3.710;2023-10-13T00:23:07;11.05;;;6.03;;
43540;SDS011;29549;40.386;-3.710;2023-10-13T00:23:18;10.88;;;6.05;;
43540;SDS011;29549;40.386;-3.710;2023-10-13T00:23:31;11.15;;;6.28;;
43540;SDS011;29549;40.386;-3.710;2023-10-13T00:23:43;10.32;;;6.18;;
43540;SDS011;29549;40.386;-3.710;2023-10-13T00:24:03;10.82;;;6.20;;
43540;SDS011;29549;40.386;-3.710;2023-10-13T00:24:22;10.52;;;6.22;;
43540;SDS011;29549;40.386;-3.710;2023-10-13T00:24:40;10.60;;;6.20;;
43540;SDS011;29549;40.386;-3.710;2023-10-13T00:25:00;9.15;;;6.43;;
43540;SDS011;29549;40.386;-3.710;2023-10-13T00:25:13;11.18;;;6.93;;
43540;SDS011;29549;40.386;-3.710;2023-10-13T00:25:36;13.88;;;6.82;;
43540;SDS011;29549;40.386;-3.710;2023-10-13T00:25:53;15.02;;;6.53;;
43540;SDS011;29549;40.386;-3.710;2023-10-13T00:26:07;11.10;;;6.30;;
43540;SDS011;29549;40.386;-3.710;2023-10-13T00:26:20;10.15;;;6.25;;
43540;SDS011;29549;40.386;-3.710;2023-10-13T00:26:38;11.02;;;6.45;;
43540;SDS011;29549;40.386;-3.710;2023-10-13T00:26:53;10.95;;;6.78;;
43540;SDS011;29549;40.386;-3.710;2023-10-13T00:27:04;10.23;;;6.57;;
43540;SDS011;29549;40.386;-3.710;2023-10-13T00:27:15;10.70;;;6.30;;
43540;SDS011;29549;40.386;-3.710;2023-10-13T00:27:43;13.68;;;6.47;;
43540;SDS011;29549;40.386;-3.710;2023-10-13T00:27:54;12.80;;;6.57;;
43540;SDS011;29549;40.386;-3.710;2023-10-13T00:28:05;11.32;;;6.57;;
43540;SDS011;29549;40.386;-3.710;2023-10-13T00:28:19;9.65;;;6.43;;
43540;SDS011;29549;40.386;-3.710;2023-10-13T00:28:34;10.20;;;6.30;;
43540;SDS011;29549;40.386;-3.710;2023-10-13T00:28:58;9.90;;;6.53;;
43540;SDS011;29549;40.386;-3.710;2023-10-13T00:29:25;10.52;;;6.50;;
43540;SDS011;29549;40.386;-3.710;2023-10-13T00:29:47;10.95;;;6.45;;
43540;SDS011;29549;40.386;-3.710;2023-10-13T00:30:01;12.00;;;6.30;;
43540;SDS011;29549;40.386;-3.710;2023-10-13T00:30:43;11.80;;;6.50;;
43540;SDS011;29549;40.386;-3.710;2023-10-13T00:31:03;10.20;;;6.45;;
43540;SDS011;29549;40.386;-3.710;2023-10-13T00:31:24;11.40;;;6.75;;
43540;SDS011;29549;40.386;-3.710;2023-10-13T00:31:46;10.20;;;6.47;;
43540;SDS011;29549;40.386;-3.710;2023-10-13T00:31:58;10.93;;;6.40;;
43540;SDS011;29549;40.386;-3.710;2023-10-13T00:32:09;11.57;;;6.35;;
43540;SDS011;29549;40.386;-3.710;2023-10-13T00:32:22;11.52;;;6.00;;
43540;SDS011;29549;40.386;-3.710;2023-10-13T00:32:37;11.13;;;6.05;;
43540;SDS011;29549;40.386;-3.710;2023-10-13T00:32:51;11.68;;;6.25;;
43540;SDS011;29549;40.386;-3.710;2023-10-13T00:33:06;10.85;;;6.20;;
43540;SDS011;29549;40.386;-3.710;2023-10-13T00:33:19;9.63;;;6.30;;
43540;SDS011;29549;40.386;-3.710;2023-10-13T00:33:32;10.95;;;6.60;;
43540;SDS011;29549;40.386;-3.710;2023-10-13T00:33:46;13.55;;;6.97;;
43540;SDS011;29549;40.386;-3.710;2023-10-13T00:33:56;14.48;;;7.07;;
43540;SDS011;29549;40.386;-3.710;2023-10-13T00:34:11;11.63;;;6.65;;
43540;SDS011;29549;40.386;-3.710;2023-10-13T00:34:29;12.35;;;6.65;;
43540;SDS011;29549;40.386;-3.710;2023-10-13T00:34:42;12.93;;;6.72;;
43540;SDS011;29549;40.386;-3.710;2023-10-13T00:34:53;10.88;;;6.38;;
43540;SDS011;29549;40.386;-3.710;2023-10-13T00:35:06;10.95;;;6.47;;
43540;SDS011;29549;40.386;-3.710;2023-10-13T00:35:21;11.75;;;6.70;;
43540;SDS011;29549;40.386;-3.710;2023-10-13T00:35:36;13.32;;;7.15;;
43540;SDS011;29549;40.386;-3.710;2023-10-13T00:35:49;12.68;;;6.85;;
43540;SDS011;29549;40.386;-3.710;2023-10-13T00:36:01;13.32;;;5.97;;
43540;SDS011;29549;40.386;-3.710;2023-10-13T00:36:13;13.40;;;5.88;;
43540;SDS011;29549;40.386;-3.710;2023-10-13T00:36:29;12.95;;;6.13;;
43540;SDS011;29549;40.386;-3.710;2023-10-13T00:36:42;12.27;;;6.05;;
43540;SDS011;29549;40.386;-3.710;2023-10-13T00:36:58;9.80;;;6.00;;
43540;SDS011;29549;40.386;-3.710;2023-10-13T00:37:29;12.02;;;6.95;;
43540;SDS011;29549;40.386;-3.710;2023-10-13T00:37:51;14.10;;;7.18;;
43540;SDS011;29549;40.386;-3.710;2023-10-13T00:38:05;14.43;;;7.30;;
43540;SDS011;29549;40.386;-3.710;2023-10-13T00:38:28;11.18;;;6.95;;
43540;SDS011;29549;40.386;-3.710;2023-10-13T00:38:39;11.17;;;6.57;;
43540;SDS011;29549;40.386;-3.710;2023-10-13T00:38:50;11.13;;;6.30;;
43540;SDS011;29549;40.386;-3.710;2023-10-13T00:39:02;10.73;;;6.45;;
43540;SDS011;29549;40.386;-3.710;2023-10-13T00:39:17;10.15;;;6.15;;
43540;SDS011;29549;40.386;-3.710;2023-10-13T00:39:27;11.98;;;6.55;;
43540;SDS011;29549;40.386;-3.710;2023-10-13T00:39:39;11.57;;;6.80;;
43540;SDS011;29549;40.386;-3.710;2023-10-13T00:39:55;12.45;;;7.03;;
43540;SDS011;29549;40.386;-3.710;2023-10-13T00:40:07;11.95;;;6.97;;
43540;SDS011;29549;40.386;-3.710;2023-10-13T00:40:27;13.35;;;6.68;;
43540;SDS011;29549;40.386;-3.710;2023-10-13T00:40:40;12.90;;;6.88;;
43540;SDS011;29549;40.386;-3.710;2023-10-13T00:40:52;12.10;;;6.80;;
43540;SDS011;29549;40.386;-3.710;2023-10-13T00:41:04;11.05;;;6.40;;
43540;SDS011;29549;40.386;-3.710;2023-10-13T00:41:26;10.27;;;6.32;;
43540;SDS011;29549;40.386;-3.710;2023-10-13T00:42:15;10.68;;;6.55;;
43540;SDS011;29549;40.386;-3.710;2023-10-13T00:42:30;10.90;;;6.75;;
43540;SDS011;29549;40.386;-3.710;2023-10-13T00:43:01;11.43;;;6.00;;
43540;SDS011;29549;40.386;-3.710;2023-10-13T00:43:29;10.77;;;5.90;;
43540;SDS011;29549;40.386;-3.710;2023-10-13T00:43:48;11.57;;;6.00;;
43540;SDS011;29549;40.386;-3.710;2023-10-13T00:44:17;13.73;;;7.30;;
43540;SDS011;29549;40.386;-3.710;2023-10-13T00:44:35;11.75;;;6.68;;
43540;SDS011;29549;40.386;-3.710;2023-10-13T00:44:52;11.20;;;6.07;;
43540;SDS011;29549;40.386;-3.710;2023-10-13T00:45:04;10.27;;;6.07;;
43540;SDS011;29549;40.386;-3.710;2023-10-13T00:45:15;9.65;;;6.20;;
43540;SDS011;29549;40.386;-3.710;2023-10-13T00:45:27;8.48;;;6.10;;
43540;SDS011;29549;40.386;-3.710;2023-10-13T00:45:39;8.88;;;5.97;;
43540;SDS011;29549;40.386;-3.710;2023-10-13T00:46:00;8.90;;;6.00;;
43540;SDS011;29549;40.386;-3.710;2023-10-13T00:46:18;12.02;;;6.40;;
43540;SDS011;29549;40.386;-3.710;2023-10-13T00:46:31;15.93;;;6.82;;
43540;SDS011;29549;40.386;-3.710;2023-10-13T00:46:46;14.13;;;6.60;;
43540;SDS011;29549;40.386;-3.710;2023-10-13T00:46:56;12.80;;;6.28;;
43540;SDS011;29549;40.386;-3.710;2023-10-13T00:47:11;11.75;;;6.30;;
43540;SDS011;29549;40.386;-3.710;2023-10-13T00:47:32;11.27;;;6.03;;
43540;SDS011;29549;40.386;-3.710;2023-10-13T00:47:46;10.00;;;6.05;;
43540;SDS011;29549;40.386;-3.710;2023-10-13T00:48:06;10.90;;;5.85;;
43540;SDS011;29549;40.386;-3.710;2023-10-13T00:48:24;11.10;;;6.00;;
43540;SDS011;29549;40.386;-3.710;2023-10-13T00:48:44;9.85;;;6.38;;
43540;SDS011;29549;40.386;-3.710;2023-10-13T00:49:03;10.88;;;6.43;;
43540;SDS011;29549;40.386;-3.710;2023-10-13T00:49:16;11.38;;;6.15;;
43540;SDS011;29549;40.386;-3.710;2023-10-13T00:49:27;10.63;;;6.00;;
43540;SDS011;29549;40.386;-3.710;2023-10-13T00:49:40;11.55;;;6.30;;
43540;SDS011;29549;40.386;-3.710;2023-10-13T00:49:51;13.82;;;6.25;;
43540;SDS011;29549;40.386;-3.710;2023-10-13T00:50:02;12.93;;;6.40;;
43540;SDS011;29549;40.386;-3.710;2023-10-13T00:50:20;10.90;;;6.55;;
43540;SDS011;29549;40.386;-3.710;2023-10-13T00:50:31;10.47;;;6.30;;
43540;SDS011;29549;40.386;-3.710;2023-10-13T00:50:46;11.00;;;6.07;;
43540;SDS011;29549;40.386;-3.710;2023-10-13T00:50:58;12.70;;;6.38;;
43540;SDS011;29549;40.386;-3.710;2023-10-13T00:51:16;14.40;;;6.43;;
43540;SDS011;29549;40.386;-3.710;2023-10-13T00:51:45;9.55;;;5.90;;
43540;SDS011;29549;40.386;-3.710;2023-10-13T00:51:59;10.43;;;6.15;;
43540;SDS011;29549;40.386;-3.710;2023-10-13T00:52:10;11.25;;;6.15;;
43540;SDS011;29549;40.386;-3.710;2023-10-13T00:52:21;13.07;;;6.22;;
43540;SDS011;29549;40.386;-3.710;2023-10-13T00:52:32;13.50;;;6.03;;
43540;SDS011;29549;40.386;-3.710;2023-10-13T00:52:45;11.45;;;6.28;;
43540;SDS011;29549;40.386;-3.710;2023-10-13T00:53:00;10.07;;;6.38;;
43540;SDS011;29549;40.386;-3.710;2023-10-13T00:53:11;10.57;;;6.50;;
43540;SDS011;29549;40.386;-3.710;2023-10-13T00:53:23;12.07;;;6.32;;
43540;SDS011;29549;40.386;-3.710;2023-10-13T00:53:36;11.43;;;6.32;;
43540;SDS011;29549;40.386;-3.710;2023-10-13T00:53:50;11.40;;;6.20;;
43540;SDS011;29549;40.386;-3.710;2023-10-13T00:54:04;11.43;;;6.22;;
43540;SDS011;29549;40.386;-3.710;2023-10-13T00:54:22;11.35;;;6.22;;
43540;SDS011;29549;40.386;-3.710;2023-10-13T00:54:37;11.85;;;6.45;;
43540;SDS011;29549;40.386;-3.710;2023-10-13T00:54:48;11.73;;;6.47;;
43540;SDS011;29549;40.386;-3.710;2023-10-13T00:55:00;10.60;;;6.38;;
43540;SDS011;29549;40.386;-3.710;2023-10-13T00:55:12;10.60;;;6.38;;
43540;SDS011;29549;40.386;-3.710;2023-10-13T00:55:24;11.75;;;6.35;;
43540;SDS011;29549;40.386;-3.710;2023-10-13T00:55:37;11.95;;;6.50;;
43540;SDS011;29549;40.386;-3.710;2023-10-13T00:55:51;11.93;;;6.40;;
43540;SDS011;29549;40.386;-3.710;2023-10-13T00:56:06;11.93;;;6.55;;
43540;SDS011;29549;40.386;-3.710;2023-10-13T00:56:18;12.63;;;6.70;;
43540;SDS011;29549;40.386;-3.710;2023-10-13T00:56:37;10.77;;;6.40;;
43540;SDS011;29549;40.386;-3.710;2023-10-13T00:56:56;10.02;;;6.20;;
43540;SDS011;29549;40.386;-3.710;2023-10-13T00:57:21;8.90;;;6.45;;
43540;SDS011;29549;40.386;-3.710;2023-10-13T00:57:40;12.65;;;6.70;;
43540;SDS011;29549;40.386;-3.710;2023-10-13T00:57:51;13.23;;;6.68;;
43540;SDS011;29549;40.386;-3.710;2023-10-13T00:58:04;12.25;;;6.55;;
43540;SDS011;29549;40.386;-3.710;2023-10-13T00:58:17;12.10;;;6.60;;
43540;SDS011;29549;40.386;-3.710;2023-10-13T00:58:35;11.82;;;6.53;;
43540;SDS011;29549;40.386;-3.710;2023-10-13T00:58:49;9.10;;;6.20;;
43540;SDS011;29549;40.386;-3.710;2023-10-13T00:59:03;10.00;;;6.25;;
43540;SDS011;29549;40.386;-3.710;2023-10-13T00:59:14;11.20;;;6.40;;
43540;SDS011;29549;40.386;-3.710;2023-10-13T00:59:26;10.07;;;6.05;;
43540;SDS011;29549;40.386;-3.710;2023-10-13T00:59:37;9.52;;;6.03;;
43540;SDS011;29549;40.386;-3.710;2023-10-13T00:59:47;9.13;;;6.25;;
43540;SDS011;29549;40.386;-3.710;2023-10-13T00:59:59;9.57;;;6.43;;
43540;SDS011;29549;40.386;-3.710;2023-10-13T01:00:22;10.98;;;6.72;;
43540;SDS011;29549;40.386;-3.710;2023-10-13T01:00:38;13.80;;;6.70;;
43540;SDS011;29549;40.386;-3.710;2023-10-13T01:00:58;14.27;;;6.75;;
43540;SDS011;29549;40.386;-3.710;2023-10-13T01:01:28;9.98;;;6.90;;
43540;SDS011;29549;40.386;-3.710;2023-10-13T01:01:40;11.70;;;6.60;;
43540;SDS011;29549;40.386;-3.710;2023-10-13T01:01:52;12.27;;;6.40;;
43540;SDS011;29549;40.386;-3.710;2023-10-13T01:02:05;11.23;;;6.35;;
43540;SDS011;29549;40.386;-3.710;2023-10-13T01:02:34;10.13;;;6.32;;
43540;SDS011;29549;40.386;-3.710;2023-10-13T01:02:47;12.20;;;7.00;;
43540;SDS011;29549;40.386;-3.710;2023-10-13T01:03:07;11.02;;;6.95;;
43540;SDS011;29549;40.386;-3.710;2023-10-13T01:03:18;10.23;;;6.50;;
43540;SDS011;29549;40.386;-3.710;2023-10-13T01:03:35;11.05;;;6.07;;
43540;SDS011;29549;40.386;-3.710;2023-10-13T01:03:48;10.23;;;6.07;;
43540;SDS011;29549;40.386;-3.710;2023-10-13T01:04:05;8.32;;;6.18;;
43540;SDS011;29549;40.386;-3.710;2023-10-13T01:04:18;8.27;;;6.18;;
43540;SDS011;29549;40.386;-3.710;2023-10-13T01:04:29;12.37;;;5.80;;
43540;SDS011;29549;40.386;-3.710;2023-10-13T01:04:42;13.50;;;6.22;;
43540;SDS011;29549;40.386;-3.710;2023-10-13T01:04:52;11.77;;;6.50;;
43540;SDS011;29549;40.386;-3.710;2023-10-13T01:05:07;9.68;;;6.55;;
43540;SDS011;29549;40.386;-3.710;2023-10-13T01:05:21;11.30;;;6.35;;
43540;SDS011;29549;40.386;-3.710;2023-10-13T01:05:33;13.25;;;6.20;;
43540;SDS011;29549;40.386;-3.710;2023-10-13T01:05:47;12.63;;;6.35;;
43540;SDS011;29549;40.386;-3.710;2023-10-13T01:06:04;10.90;;;6.38;;
43540;SDS011;29549;40.386;-3.710;2023-10-13T01:06:15;11.40;;;6.30;;
43540;SDS011;29549;40.386;-3.710;2023-10-13T01:06:27;11.32;;;6.00;;
43540;SDS011;29549;40.386;-3.710;2023-10-13T01:06:39;12.07;;;6.40;;
43540;SDS011;29549;40.386;-3.710;2023-10-13T01:06:49;10.65;;;6.55;;
43540;SDS011;29549;40.386;-3.710;2023-10-13T01:07:01;10.75;;;6.95;;
43540;SDS011;29549;40.386;-3.710;2023-10-13T01:07:14;10.18;;;6.38;;
43540;SDS011;29549;40.386;-3.710;2023-10-13T01:07:26;13.66;;;6.14;;
43540;SDS011;29549;40.386;-3.710;2023-10-13T01:07:37;14.97;;;6.27;;
43540;SDS011;29549;40.386;-3.710;2023-10-13T01:07:47;15.40;;;6.75;;
43540;SDS011;29549;40.386;-3.710;2023-10-13T01:08:02;11.70;;;6.47;;
43540;SDS011;29549;40.386;-3.710;2023-10-13T01:08:13;10.77;;;6.00;;
43540;SDS011;29549;40.386;-3.710;2023-10-13T01:08:33;11.32;;;6.57;;
43540;SDS011;29549;40.386;-3.710;2023-10-13T01:08:48;11.35;;;7.00;;
43540;SDS011;29549;40.386;-3.710;2023-10-13T01:09:02;11.05;;;6.28;;
43540;SDS011;29549;40.386;-3.710;2023-10-13T01:09:26;10.65;;;6.03;;
43540;SDS011;29549;40.386;-3.710;2023-10-13T01:09:43;10.65;;;6.20;;
43540;SDS011;29549;40.386;-3.710;2023-10-13T01:09:57;12.48;;;6.70;;
43540;SDS011;29549;40.386;-3.710;2023-10-13T01:10:10;13.77;;;6.90;;
43540;SDS011;29549;40.386;-3.710;2023-10-13T01:10:24;13.18;;;6.55;;
43540;SDS011;29549;40.386;-3.710;2023-10-13T01:10:42;11.55;;;6.78;;
43540;SDS011;29549;40.386;-3.710;2023-10-13T01:10:53;10.48;;;6.85;;
43540;SDS011;29549;40.386;-3.710;2023-10-13T01:11:04;9.93;;;6.47;;
43540;SDS011;29549;40.386;-3.710;2023-10-13T01:11:18;8.48;;;6.50;;
43540;SDS011;29549;40.386;-3.710;2023-10-13T01:11:29;10.23;;;6.95;;
43540;SDS011;29549;40.386;-3.710;2023-10-13T01:11:43;11.52;;;7.18;;
43540;SDS011;29549;40.386;-3.710;2023-10-13T01:11:54;12.30;;;7.07;;
43540;SDS011;29549;40.386;-3.710;2023-10-13T01:12:05;11.48;;;6.63;;
43540;SDS011;29549;40.386;-3.710;2023-10-13T01:12:18;10.60;;;6.50;;
43540;SDS011;29549;40.386;-3.710;2023-10-13T01:12:29;9.37;;;6.43;;
43540;SDS011;29549;40.386;-3.710;2023-10-13T01:12:40;10.48;;;6.35;;
43540;SDS011;29549;40.386;-3.710;2023-10-13T01:12:56;11.82;;;6.38;;
43540;SDS011;29549;40.386;-3.710;2023-10-13T01:13:09;12.45;;;6.53;;
43540;SDS011;29549;40.386;-3.710;2023-10-13T01:13:21;12.80;;;6.38;;
43540;SDS011;29549;40.386;-3.710;2023-10-13T01:13:34;13.20;;;6.30;;
43540;SDS011;29549;40.386;-3.710;2023-10-13T01:13:47;13.32;;;6.65;;
43540;SDS011;29549;40.386;-3.710;2023-10-13T01:14:01;12.80;;;6.53;;
43540;SDS011;29549;40.386;-3.710;2023-10-13T01:14:14;11.65;;;6.22;;
43540;SDS011;29549;40.386;-3.710;2023-10-13T01:14:28;9.90;;;6.07;;
43540;SDS011;29549;40.386;-3.710;2023-10-13T01:14:39;9.25;;;5.85;;
43540;SDS011;29549;40.386;-3.710;2023-10-13T01:14:50;10.30;;;6.03;;
43540;SDS011;29549;40.386;-3.710;2023-10-13T01:15:01;11.95;;;6.32;;
43540;SDS011;29549;40.386;-3.710;2023-10-13T01:15:18;11.02;;;6.25;;
43540;SDS011;29549;40.386;-3.710;2023-10-13T01:15:32;9.00;;;5.95;;
43540;SDS011;29549;40.386;-3.710;2023-10-13T01:15:43;9.38;;;6.13;;
43540;SDS011;29549;40.386;-3.710;2023-10-13T01:15:57;8.85;;;6.20;;
43540;SDS011;29549;40.386;-3.710;2023-10-13T01:16:07;8.90;;;6.17;;
43540;SDS011;29549;40.386;-3.710;2023-10-13T01:16:21;9.77;;;6.45;;
43540;SDS011;29549;40.386;-3.710;2023-10-13T01:16:33;11.63;;;6.68;;
43540;SDS011;29549;40.386;-3.710;2023-10-13T01:16:46;10.35;;;6.32;;
43540;SDS011;29549;40.386;-3.710;2023-10-13T01:17:02;11.43;;;6.10;;
43540;SDS011;29549;40.386;-3.710;2023-10-13T01:17:13;11.32;;;6.50;;
43540;SDS011;29549;40.386;-3.710;2023-10-13T01:17:24;9.73;;;6.50;;
43540;SDS011;29549;40.386;-3.710;2023-10-13T01:17:35;10.82;;;6.50;;
43540;SDS011;29549;40.386;-3.710;2023-10-13T01:17:47;10.80;;;6.30;;
43540;SDS011;29549;40.386;-3.710;2023-10-13T01:18:08;13.45;;;6.47;;
43540;SDS011;29549;40.386;-3.710;2023-10-13T01:18:24;11.50;;;5.82;;
43540;SDS011;29549;40.386;-3.710;2023-10-13T01:18:38;9.20;;;5.68;;
43540;SDS011;29549;40.386;-3.710;2023-10-13T01:18:58;9.10;;;6.00;;
43540;SDS011;29549;40.386;-3.710;2023-10-13T01:19:10;10.35;;;6.18;;
43540;SDS011;29549;40.386;-3.710;2023-10-13T01:19:22;12.23;;;6.40;;
43540;SDS011;29549;40.386;-3.710;2023-10-13T01:19:38;12.52;;;6.88;;
43540;SDS011;29549;40.386;-3.710;2023-10-13T01:19:52;9.77;;;6.50;;
43540;SDS011;29549;40.386;-3.710;2023-10-13T01:20:08;10.68;;;5.95;;
43540;SDS011;29549;40.386;-3.710;2023-10-13T01:20:21;10.70;;;5.88;;
43540;SDS011;29549;40.386;-3.710;2023-10-13T01:20:35;10.95;;;6.15;;
43540;SDS011;29549;40.386;-3.710;2023-10-13T01:20:52;11.32;;;6.53;;
43540;SDS011;29549;40.386;-3.710;2023-10-13T01:21:04;11.23;;;6.63;;
43540;SDS011;29549;40.386;-3.710;2023-10-13T01:21:17;11.68;;;6.43;;
43540;SDS011;29549;40.386;-3.710;2023-10-13T01:21:30;9.35;;;6.15;;
43540;SDS011;29549;40.386;-3.710;2023-10-13T01:21:43;8.23;;;6.05;;
43540;SDS011;29549;40.386;-3.710;2023-10-13T01:21:55;9.40;;;6.10;;
43540;SDS011;29549;40.386;-3.710;2023-10-13T01:22:14;11.88;;;6.50;;
43540;SDS011;29549;40.386;-3.710;2023-10-13T01:22:25;11.67;;;6.70;;
43540;SDS011;29549;40.386;-3.710;2023-10-13T01:22:38;10.85;;;6.40;;
43540;SDS011;29549;40.386;-3.710;2023-10-13T01:22:49;9.27;;;6.00;;
43540;SDS011;29549;40.386;-3.710;2023-10-13T01:23:08;10.85;;;6.20;;
43540;SDS011;29549;40.386;-3.710;2023-10-13T01:23:28;9.18;;;5.88;;
43540;SDS011;29549;40.386;-3.710;2023-10-13T01:23:39;9.43;;;5.65;;
43540;SDS011;29549;40.386;-3.710;2023-10-13T01:23:52;11.32;;;5.80;;
43540;SDS011;29549;40.386;-3.710;2023-10-13T01:24:03;12.35;;;6.13;;
43540;SDS011;29549;40.386;-3.710;2023-10-13T01:24:17;12.63;;;6.63;;
43540;SDS011;29549;40.386;-3.710;2023-10-13T01:24:30;13.20;;;6.70;;
43540;SDS011;29549;40.386;-3.710;2023-10-13T01:24:44;11.55;;;6.25;;
43540;SDS011;29549;40.386;-3.710;2023-10-13T01:24:55;11.20;;;6.47;;
43540;SDS011;29549;40.386;-3.710;2023-10-13T01:25:15;13.23;;;7.38;;
43540;SDS011;29549;40.386;-3.710;2023-10-13T01:25:29;10.80;;;7.60;;
43540;SDS011;29549;40.386;-3.710;2023-10-13T01:25:40;10.83;;;7.20;;
43540;SDS011;29549;40.386;-3.710;2023-10-13T01:25:50;9.75;;;6.40;;
43540;SDS011;29549;40.386;-3.710;2023-10-13T01:26:04;8.85;;;5.90;;
43540;SDS011;29549;40.386;-3.710;2023-10-13T01:26:15;9.38;;;5.82;;
43540;SDS011;29549;40.386;-3.710;2023-10-13T01:26:31;9.85;;;6.28;;
43540;SDS011;29549;40.386;-3.710;2023-10-13T01:26:46;10.40;;;6.30;;
43540;SDS011;29549;40.386;-3.710;2023-10-13T01:27:01;10.38;;;6.20;;